West Camp, New York
Current Conditions -  °F | °C
As of 3:20 AM on Sunday 26 Oct 2014 (Local Time) from KPOU Reporting Station
Light Rain Light Rain  
Wind Chill: 51°   Ceiling: 6000
Heat Index: 51°   Visibility: 10mi
Dew Point: 44°   Wind: 9mph
Humidity: 77%   Direction: 350°N
Pressure: 29.58"   Gusts: NA
Location:  42.12°N, 73.94°W
Report Text: KPOU 260720Z AUTO 35008KT 10SM -RA FEW047 OVC060 11/07 A2958 RMK AO2 PK WND 28033/0702 WSHFT 0700 RAB02 P0002 T01060067 TSNO
Loading
Personal Weather Stations






























Interactive Weather Map New forecast layout! Learn more

10-Day Weather Forecast

Advertisements
Track Severe Weather on mobile